Meteo Giornale » Osservazioni meteo Italia » Falconara

ore: 16:50 - Osservazioni Meteo Falconara
Lat. 43° 37' N Lon. 13° 22' E Alt. 12 metri s.l.m.

poco_nuvoloso Europe/Rome

28 °C

Poco Nuvoloso

Temp. 24 Ore

21 °C

28 °C

Nord

16.7 Km/h

Dew point 16 °C

Umidità 48 %

Visibilità  10 Km

Il sole sorge alle ore 06:11

Il sole tramonta alle ore 20:10

Data e Ora Cielo e Fenomeni T °C DP °C Um. % Pres. hPa Vis. km Vento km/h
Oggi h: 16:50 poco_nuvoloso Poco Nuvoloso 28 16 48 1013 10 N 16.7
Oggi h: 15:50 poco_nuvoloso Poco Nuvoloso 28 16 48 1013 10 N/NE 14.8
Oggi h: 14:50 poco_nuvoloso Poco Nuvoloso 28 17 51 1014 10 N/NE 16.7
Oggi h: 13:50 poco_nuvoloso Poco Nuvoloso 28 18 54 1014 10 N 13
Oggi h: 12:50 poco_nuvoloso Poco Nuvoloso 28 18 54 1014 10 N/NO 14.8
Oggi h: 11:50 poco_nuvoloso Poco Nuvoloso 28 17 51 1014 10 N/NO 14.8
Oggi h: 10:50 poco_nuvoloso Poco Nuvoloso 28 16 48 1014 10 NE 18.5
Oggi h: 09:50 poco_nuvoloso Poco Nuvoloso 27 17 54 1015 10 N/NE 9.3
Oggi h: 08:50 sereno Sereno 25 18 65 1015 10 N 5.5
Oggi h: 07:50 sereno Sereno 23 17 68 1015 10 N 5.5
Oggi h: 06:50 sereno Sereno 21 17 77 1015 10 SO 11.1
Oggi h: 05:50 sereno Sereno 25 16 57 1014 10 NE 13
Oggi h: 04:50 sereno Sereno 25 17 61 1014 10 N/NE 14.8
Oggi h: 03:50 sereno Sereno 21 17 77 1014 10 N 3.7
Oggi h: 02:50 sereno Sereno 22 17 73 1014 10 N 3.7
Oggi h: 01:50 sereno Sereno 22 17 73 1014 10 S 7.4
Oggi h: 00:50 sereno Sereno 22 16 68 1014 10 N 5.5
Ieri h: 23:50 sereno Sereno 23 16 64 1014 10 S 7.4
Ieri h: 22:50 sereno Sereno 23 16 64 1014 10 S/SO 7.4
Ieri h: 21:50 sereno Sereno 24 16 60 1014 10 S 7.4
Ieri h: 20:50 poco_nuvoloso Poco Nuvoloso 25 15 53 1014 10 N 5.5
Ieri h: 19:50 sereno Sereno 27 15 47 1013 10 N/NO 11.1
Ieri h: 18:50 sereno Sereno 27 15 47 1013 10 N 13
Ieri h: 17:50 sereno Sereno 28 16 48 1013 10 N 14.8